createdAt,value
2022-12-05T00:00:46.498Z,4.43
2022-12-05T00:01:46.495Z,4.43
2022-12-05T00:02:46.452Z,4.42
2022-12-05T00:03:46.488Z,4.39
2022-12-05T00:04:46.496Z,4.42
2022-12-05T00:05:46.444Z,4.39
2022-12-05T00:06:46.402Z,4.39
2022-12-05T00:07:46.462Z,4.38
2022-12-05T00:08:46.373Z,4.39
2022-12-05T00:09:46.374Z,4.39
2022-12-05T00:10:46.362Z,4.39
2022-12-05T00:11:46.402Z,4.41
2022-12-05T00:12:46.352Z,4.39
2022-12-05T00:13:46.323Z,4.38
2022-12-05T00:14:46.313Z,4.36
2022-12-05T00:15:46.300Z,4.38
2022-12-05T00:16:46.341Z,4.38
2022-12-05T00:17:46.278Z,4.39
2022-12-05T00:18:46.285Z,4.39
2022-12-05T00:19:46.254Z,4.39
2022-12-05T00:20:46.275Z,4.39
2022-12-05T00:21:46.271Z,4.38
2022-12-05T00:22:46.243Z,4.39
2022-12-05T00:23:46.239Z,4.38
2022-12-05T00:24:46.217Z,4.39
2022-12-05T00:25:46.204Z,4.41
2022-12-05T00:26:46.226Z,4.39
2022-12-05T00:27:46.202Z,4.39
2022-12-05T00:28:46.174Z,4.39
2022-12-05T00:29:46.136Z,4.41
2022-12-05T00:30:46.157Z,4.41
2022-12-05T00:31:46.229Z,4.41
2022-12-05T00:32:46.116Z,4.41
2022-12-05T00:33:46.108Z,4.42
2022-12-05T00:34:46.106Z,4.42
2022-12-05T00:35:46.087Z,4.43
2022-12-05T00:36:46.126Z,4.42
2022-12-05T00:37:46.068Z,4.42
2022-12-05T00:38:46.077Z,4.43
2022-12-05T00:39:46.056Z,4.42
2022-12-05T00:40:46.039Z,4.41
2022-12-05T00:41:46.037Z,4.43
2022-12-05T00:42:52.016Z,4.42
2022-12-05T00:43:47.011Z,4.41
2022-12-05T00:44:46.049Z,4.41
2022-12-05T00:45:46.049Z,4.41
2022-12-05T00:46:45.968Z,4.39
2022-12-05T00:47:46.043Z,4.42
2022-12-05T00:48:45.978Z,4.42
2022-12-05T00:49:45.960Z,4.45
2022-12-05T00:50:45.939Z,4.43
2022-12-05T00:51:45.927Z,4.43
2022-12-05T00:52:46.207Z,4.43
2022-12-05T00:53:45.937Z,4.42
2022-12-05T00:54:45.959Z,4.41
2022-12-05T00:55:45.893Z,4.43
2022-12-05T00:56:45.899Z,4.43
2022-12-05T00:57:45.941Z,4.43
2022-12-05T00:58:45.873Z,4.42
2022-12-05T00:59:45.838Z,4.43
2022-12-05T01:00:45.868Z,4.45
2022-12-05T01:01:45.893Z,4.46
2022-12-05T01:02:45.937Z,4.45
2022-12-05T01:03:46.072Z,4.46
2022-12-05T01:04:45.822Z,4.45
2022-12-05T01:05:45.808Z,4.46
2022-12-05T01:06:45.820Z,4.43
2022-12-05T01:07:45.803Z,4.42
2022-12-05T01:08:45.765Z,4.43
2022-12-05T01:09:45.732Z,4.43
2022-12-05T01:10:45.753Z,4.45
2022-12-05T01:11:45.731Z,4.45
2022-12-05T01:12:45.711Z,4.45
2022-12-05T01:13:45.685Z,4.46
2022-12-05T01:14:45.696Z,4.45
2022-12-05T01:15:45.706Z,4.43
2022-12-05T01:16:45.739Z,4.45
2022-12-05T01:17:45.637Z,4.46
2022-12-05T01:18:45.638Z,4.45
2022-12-05T01:19:45.614Z,4.46
2022-12-05T01:20:45.638Z,4.45
2022-12-05T01:21:45.624Z,4.46
2022-12-05T01:22:45.603Z,4.48
2022-12-05T01:23:45.576Z,4.46
2022-12-05T01:24:45.554Z,4.43
2022-12-05T01:25:45.553Z,4.43
2022-12-05T01:26:45.547Z,4.42
2022-12-05T01:27:45.566Z,4.43
2022-12-05T01:28:45.542Z,4.45
2022-12-05T01:29:45.516Z,4.41
2022-12-05T01:30:45.507Z,4.43
2022-12-05T01:31:45.523Z,4.45
2022-12-05T01:32:45.493Z,4.43
2022-12-05T01:33:45.496Z,4.41
2022-12-05T01:34:45.448Z,4.43
2022-12-05T01:35:45.447Z,4.43
2022-12-05T01:36:45.485Z,4.46
2022-12-05T01:37:45.436Z,4.45
2022-12-05T01:38:45.418Z,4.43
2022-12-05T01:39:45.458Z,4.43
2022-12-05T01:40:45.399Z,4.43
2022-12-05T01:41:45.443Z,4.43
2022-12-05T01:42:45.376Z,4.42
2022-12-05T01:43:45.360Z,4.45
2022-12-05T01:44:45.350Z,4.43
2022-12-05T01:45:45.454Z,4.43
2022-12-05T01:46:45.389Z,4.43
2022-12-05T01:47:45.329Z,4.45
2022-12-05T01:48:45.310Z,4.45
2022-12-05T01:49:45.303Z,4.45
2022-12-05T01:50:45.290Z,4.42
2022-12-05T01:51:45.304Z,4.42
2022-12-05T01:52:45.275Z,4.42
2022-12-05T01:53:45.261Z,4.39
2022-12-05T01:54:45.262Z,4.38
2022-12-05T01:55:45.236Z,4.38
2022-12-05T01:56:45.472Z,4.38
2022-12-05T01:57:45.220Z,4.36
2022-12-05T01:58:45.374Z,4.36
2022-12-05T01:59:45.374Z,4.36
2022-12-05T02:00:45.964Z,4.35
2022-12-05T02:01:45.500Z,4.35
2022-12-05T02:02:46.176Z,4.35
2022-12-05T02:03:45.646Z,4.35
2022-12-05T02:04:47.208Z,4.35
2022-12-05T02:05:45.892Z,4.34
2022-12-05T02:06:45.804Z,4.34
2022-12-05T02:07:47.434Z,4.31
2022-12-05T02:08:45.793Z,4.31
2022-12-05T02:09:45.602Z,4.31
2022-12-05T02:10:45.465Z,4.31
2022-12-05T02:11:46.155Z,4.34
2022-12-05T02:12:45.380Z,4.31
2022-12-05T02:13:45.361Z,4.31
2022-12-05T02:14:46.019Z,4.31
2022-12-05T02:15:46.583Z,4.34
2022-12-05T02:16:45.620Z,4.31
2022-12-05T02:17:45.344Z,4.30
2022-12-05T02:18:45.116Z,4.27
2022-12-05T02:19:45.542Z,4.27
2022-12-05T02:20:45.516Z,4.28
2022-12-05T02:21:45.622Z,4.27
2022-12-05T02:22:45.499Z,4.27
2022-12-05T02:23:45.673Z,4.30
2022-12-05T02:24:45.525Z,4.30
2022-12-05T02:25:45.567Z,4.31
2022-12-05T02:26:45.584Z,4.31
2022-12-05T02:27:45.285Z,4.31
2022-12-05T02:28:45.531Z,4.31
2022-12-05T02:29:45.226Z,4.27
2022-12-05T02:30:45.580Z,4.28
2022-12-05T02:31:45.180Z,4.26
2022-12-05T02:32:45.147Z,4.27
2022-12-05T02:33:45.452Z,4.28
2022-12-05T02:34:45.025Z,4.27
2022-12-05T02:35:46.080Z,4.28
2022-12-05T02:36:45.986Z,4.28
2022-12-05T02:37:45.301Z,4.27
2022-12-05T02:38:45.311Z,4.27
2022-12-05T02:39:44.967Z,4.27
2022-12-05T02:40:46.004Z,4.30
2022-12-05T02:41:46.184Z,4.30
2022-12-05T02:42:45.037Z,4.30
2022-12-05T02:43:45.072Z,4.30
2022-12-05T02:44:45.779Z,4.28
2022-12-05T02:45:45.217Z,4.30
2022-12-05T02:46:45.562Z,4.30
2022-12-05T02:47:44.813Z,4.28
2022-12-05T02:48:45.255Z,4.28
2022-12-05T02:49:45.080Z,4.28
2022-12-05T02:50:45.134Z,4.26
2022-12-05T02:51:44.862Z,4.28
2022-12-05T02:52:45.179Z,4.27
2022-12-05T02:53:45.001Z,4.27
2022-12-05T02:54:44.918Z,4.26
2022-12-05T02:55:44.840Z,4.27
2022-12-05T02:56:45.076Z,4.26
2022-12-05T02:57:44.799Z,4.26
2022-12-05T02:58:44.799Z,4.26
2022-12-05T02:59:44.965Z,4.26
2022-12-05T03:00:45.214Z,4.26
2022-12-05T03:01:44.887Z,4.27
2022-12-05T03:02:45.023Z,4.27
2022-12-05T03:03:44.810Z,4.27
2022-12-05T03:04:44.839Z,4.28
2022-12-05T03:05:44.833Z,4.27
2022-12-05T03:06:44.659Z,4.30
2022-12-05T03:07:45.458Z,4.27
2022-12-05T03:08:45.147Z,4.28
2022-12-05T03:09:44.770Z,4.27
2022-12-05T03:10:44.590Z,4.27
2022-12-05T03:11:44.580Z,4.27
2022-12-05T03:12:44.647Z,4.27
2022-12-05T03:13:44.680Z,4.26
2022-12-05T03:14:44.953Z,4.27
2022-12-05T03:15:45.539Z,4.27
2022-12-05T03:16:44.712Z,4.27
2022-12-05T03:17:44.649Z,4.26
2022-12-05T03:18:44.651Z,4.26
2022-12-05T03:19:45.173Z,4.26
2022-12-05T03:20:44.743Z,4.27
2022-12-05T03:21:45.273Z,4.27
2022-12-05T03:22:44.863Z,4.27
2022-12-05T03:23:44.677Z,4.27
2022-12-05T03:24:44.544Z,4.26
2022-12-05T03:25:44.465Z,4.24
2022-12-05T03:26:44.449Z,4.28
2022-12-05T03:27:44.647Z,4.27
2022-12-05T03:28:44.575Z,4.27
2022-12-05T03:29:44.546Z,4.28
2022-12-05T03:30:44.699Z,4.28
2022-12-05T03:31:44.401Z,4.28
2022-12-05T03:32:44.328Z,4.28
2022-12-05T03:33:44.656Z,4.28
2022-12-05T03:34:44.513Z,4.28
2022-12-05T03:35:44.436Z,4.28
2022-12-05T03:36:44.796Z,4.28
2022-12-05T03:37:44.716Z,4.28
2022-12-05T03:38:44.727Z,4.30
2022-12-05T03:39:44.739Z,4.30
2022-12-05T03:40:44.486Z,4.28
2022-12-05T03:41:44.252Z,4.30
2022-12-05T03:42:44.857Z,4.30
2022-12-05T03:43:44.646Z,4.30
2022-12-05T03:44:44.818Z,4.30
2022-12-05T03:45:44.428Z,4.30
2022-12-05T03:46:44.370Z,4.30
2022-12-05T03:47:45.241Z,4.30
2022-12-05T03:48:44.421Z,4.30
2022-12-05T03:49:44.219Z,4.28
2022-12-05T03:50:44.245Z,4.28
2022-12-05T03:51:44.393Z,4.30
2022-12-05T03:53:17.488Z,4.28
2022-12-05T03:53:45.446Z,4.28
2022-12-05T03:54:44.390Z,4.28
2022-12-05T03:55:44.263Z,4.30
2022-12-05T03:56:44.179Z,4.30
2022-12-05T03:57:44.738Z,4.30
2022-12-05T03:58:44.336Z,4.30
2022-12-05T03:59:44.270Z,4.30
2022-12-05T04:00:44.200Z,4.30
2022-12-05T04:01:44.433Z,4.34
2022-12-05T04:02:44.645Z,4.34
2022-12-05T04:03:44.253Z,4.30
2022-12-05T04:04:44.322Z,4.30
2022-12-05T04:05:44.777Z,4.30
2022-12-05T04:06:44.288Z,4.27
2022-12-05T04:07:44.668Z,4.28
2022-12-05T04:08:44.380Z,4.28
2022-12-05T04:09:44.669Z,4.28
2022-12-05T04:10:44.422Z,4.27
2022-12-05T04:11:44.040Z,4.30
2022-12-05T04:12:44.005Z,4.28
2022-12-05T04:13:43.849Z,4.30
2022-12-05T04:14:44.019Z,4.28
2022-12-05T04:15:44.269Z,4.30
2022-12-05T04:16:44.553Z,4.30
2022-12-05T04:17:46.945Z,4.30
2022-12-05T04:18:45.214Z,4.28
2022-12-05T04:19:44.479Z,4.30
2022-12-05T04:20:44.081Z,4.30
2022-12-05T04:21:44.272Z,4.31
2022-12-05T04:22:44.174Z,4.28
2022-12-05T04:23:47.795Z,4.30
2022-12-05T04:24:44.211Z,4.28
2022-12-05T04:25:44.335Z,4.30
2022-12-05T04:26:43.946Z,4.28
2022-12-05T04:27:44.342Z,4.28
2022-12-05T04:28:43.993Z,4.28
2022-12-05T04:29:43.827Z,4.30
2022-12-05T04:30:45.043Z,4.28
2022-12-05T04:31:44.264Z,4.28
2022-12-05T04:32:43.854Z,4.30
2022-12-05T04:33:43.755Z,4.30
2022-12-05T04:34:43.901Z,4.28
2022-12-05T04:35:43.608Z,4.30
2022-12-05T04:36:43.752Z,4.30
2022-12-05T04:37:44.279Z,4.30
2022-12-05T04:38:43.998Z,4.30
2022-12-05T04:39:44.054Z,4.28
2022-12-05T04:40:43.887Z,4.28
2022-12-05T04:41:43.806Z,4.30
2022-12-05T04:42:43.967Z,4.30
2022-12-05T04:43:43.518Z,4.31
2022-12-05T04:44:43.778Z,4.35
2022-12-05T04:45:44.371Z,4.34
2022-12-05T04:46:44.164Z,4.35
2022-12-05T04:47:44.126Z,4.34
2022-12-05T04:48:43.509Z,4.31
2022-12-05T04:49:43.578Z,4.30
2022-12-05T04:50:43.529Z,4.31
2022-12-05T04:51:43.786Z,4.31
2022-12-05T04:52:43.578Z,4.34
2022-12-05T04:53:43.602Z,4.34
2022-12-05T04:54:44.692Z,4.31
2022-12-05T04:55:44.265Z,4.31
2022-12-05T04:56:44.809Z,4.30
2022-12-05T04:57:43.630Z,4.30
2022-12-05T04:58:43.805Z,4.34
2022-12-05T04:59:43.651Z,4.34
2022-12-05T05:00:43.617Z,4.34
2022-12-05T05:01:44.012Z,4.35
2022-12-05T05:02:44.048Z,4.34
2022-12-05T05:03:43.669Z,4.34
2022-12-05T05:04:43.421Z,4.31
2022-12-05T05:05:44.302Z,4.31
2022-12-05T05:06:43.962Z,4.34
2022-12-05T05:07:43.535Z,4.31
2022-12-05T05:08:43.733Z,4.34
2022-12-05T05:09:43.333Z,4.34
2022-12-05T05:10:43.465Z,4.31
2022-12-05T05:11:43.719Z,4.31
2022-12-05T05:12:43.541Z,4.30
2022-12-05T05:13:43.452Z,4.30
2022-12-05T05:14:43.772Z,4.27
2022-12-05T05:15:44.523Z,4.26
2022-12-05T05:16:43.485Z,4.27
2022-12-05T05:17:43.254Z,4.26
2022-12-05T05:18:43.615Z,4.27
2022-12-05T05:19:43.569Z,4.27
2022-12-05T05:20:43.305Z,4.30
2022-12-05T05:21:43.633Z,4.28
2022-12-05T05:22:43.357Z,4.27
2022-12-05T05:23:43.472Z,4.27
2022-12-05T05:24:43.665Z,4.26
2022-12-05T05:25:43.296Z,4.23
2022-12-05T05:26:43.301Z,4.23
2022-12-05T05:27:43.267Z,4.26
2022-12-05T05:28:43.166Z,4.26
2022-12-05T05:29:43.145Z,4.26
2022-12-05T05:30:43.604Z,4.27
2022-12-05T05:31:43.244Z,4.27
2022-12-05T05:32:43.226Z,4.27
2022-12-05T05:33:43.598Z,4.27
2022-12-05T05:34:43.366Z,4.24
2022-12-05T05:35:43.905Z,4.24
2022-12-05T05:36:43.224Z,4.24
2022-12-05T05:37:43.377Z,4.23
2022-12-05T05:38:43.406Z,4.24
2022-12-05T05:39:43.180Z,4.21
2022-12-05T05:40:43.695Z,4.21
2022-12-05T05:41:43.367Z,4.23
2022-12-05T05:42:43.561Z,4.21
2022-12-05T05:43:42.975Z,4.21
2022-12-05T05:44:43.170Z,4.21
2022-12-05T05:45:43.145Z,4.21
2022-12-05T05:46:43.125Z,4.21
2022-12-05T05:47:43.287Z,4.23
2022-12-05T05:48:43.448Z,4.23
2022-12-05T05:49:43.188Z,4.23
2022-12-05T05:50:43.153Z,4.24
2022-12-05T05:51:42.995Z,4.26
2022-12-05T05:52:43.151Z,4.23
2022-12-05T05:53:42.868Z,4.23
2022-12-05T05:54:43.244Z,4.23
2022-12-05T05:55:43.291Z,4.23
2022-12-05T05:56:42.947Z,4.20
2022-12-05T05:57:43.201Z,4.23
2022-12-05T05:58:42.978Z,4.21
2022-12-05T05:59:42.771Z,4.23
2022-12-05T06:00:43.257Z,4.21
2022-12-05T06:01:43.080Z,4.23
2022-12-05T06:02:43.336Z,4.21
2022-12-05T06:03:43.701Z,4.21
2022-12-05T06:04:42.909Z,4.21
2022-12-05T06:05:43.190Z,4.21
2022-12-05T06:06:42.934Z,4.20
2022-12-05T06:07:42.729Z,4.23
2022-12-05T06:08:43.142Z,4.23
2022-12-05T06:09:43.081Z,4.21
2022-12-05T06:10:42.783Z,4.20
2022-12-05T06:11:42.844Z,4.17
2022-12-05T06:12:43.229Z,4.17
2022-12-05T06:13:43.021Z,4.18
2022-12-05T06:14:43.023Z,4.16
2022-12-05T06:15:43.403Z,4.17
2022-12-05T06:16:42.834Z,4.16
2022-12-05T06:17:43.043Z,4.16
2022-12-05T06:18:42.764Z,4.12
2022-12-05T06:19:42.832Z,4.13
2022-12-05T06:20:42.822Z,4.13
2022-12-05T06:21:42.732Z,4.13
2022-12-05T06:22:42.673Z,4.13
2022-12-05T06:23:42.944Z,4.13
2022-12-05T06:24:43.068Z,4.13
2022-12-05T06:25:42.943Z,4.16
2022-12-05T06:26:43.012Z,4.16
2022-12-05T06:27:43.045Z,4.17
2022-12-05T06:28:42.804Z,4.17
2022-12-05T06:29:42.734Z,4.16
2022-12-05T06:30:42.687Z,4.17
2022-12-05T06:31:42.470Z,4.16
2022-12-05T06:32:43.053Z,4.16
2022-12-05T06:33:42.493Z,4.13
2022-12-05T06:34:42.935Z,4.13
2022-12-05T06:35:43.148Z,4.13
2022-12-05T06:36:42.556Z,4.16
2022-12-05T06:37:43.036Z,4.13
2022-12-05T06:38:43.271Z,4.13
2022-12-05T06:39:42.724Z,4.12
2022-12-05T06:40:43.717Z,4.13
2022-12-05T06:41:42.437Z,4.10
2022-12-05T06:42:42.348Z,4.12
2022-12-05T06:43:42.361Z,4.16
2022-12-05T06:44:42.830Z,4.16
2022-12-05T06:45:42.534Z,4.13
2022-12-05T06:46:43.036Z,4.17
2022-12-05T06:47:42.282Z,4.16
2022-12-05T06:48:42.676Z,4.17
2022-12-05T06:49:42.945Z,4.17
2022-12-05T06:50:42.420Z,4.16
2022-12-05T06:51:42.367Z,4.17
2022-12-05T06:52:42.588Z,4.16
2022-12-05T06:53:42.620Z,4.16
2022-12-05T06:54:42.531Z,4.13
2022-12-05T06:55:42.552Z,4.13
2022-12-05T06:56:42.628Z,4.13
2022-12-05T06:57:42.255Z,4.13
2022-12-05T06:58:42.617Z,4.13
2022-12-05T06:59:42.277Z,4.16
2022-12-05T07:00:43.136Z,4.16
2022-12-05T07:01:42.926Z,4.12
2022-12-05T07:02:42.437Z,4.13
2022-12-05T07:03:42.339Z,4.10
2022-12-05T07:04:42.383Z,4.12
2022-12-05T07:05:42.487Z,4.12
2022-12-05T07:06:46.102Z,4.12
2022-12-05T07:07:43.828Z,4.12
2022-12-05T07:08:42.182Z,4.12
2022-12-05T07:09:42.851Z,4.13
2022-12-05T07:10:42.056Z,4.13
2022-12-05T07:11:42.172Z,4.12
2022-12-05T07:12:42.303Z,4.12
2022-12-05T07:13:42.103Z,4.10
2022-12-05T07:14:50.256Z,4.12
2022-12-05T07:15:43.113Z,4.10
2022-12-05T07:16:42.374Z,4.13
2022-12-05T07:17:42.106Z,4.13
2022-12-05T07:18:42.209Z,4.09
2022-12-05T07:19:42.072Z,4.08
2022-12-05T07:21:10.837Z,4.06
2022-12-05T07:21:43.351Z,4.06
2022-12-05T07:22:42.045Z,4.05
2022-12-05T07:23:42.373Z,4.06
2022-12-05T07:24:41.875Z,4.06
2022-12-05T07:25:42.563Z,4.05
2022-12-05T07:26:41.743Z,4.02
2022-12-05T07:27:41.994Z,4.00
2022-12-05T07:28:41.832Z,4.02
2022-12-05T07:29:42.598Z,4.05
2022-12-05T07:30:42.331Z,4.05
2022-12-05T07:31:42.153Z,4.05
2022-12-05T07:32:42.073Z,4.03
2022-12-05T07:33:43.036Z,4.02
2022-12-05T07:34:41.995Z,4.02
2022-12-05T07:35:42.401Z,4.03
2022-12-05T07:36:42.359Z,4.03
2022-12-05T07:37:42.514Z,4.00
2022-12-05T07:38:42.325Z,4.02
2022-12-05T07:39:42.226Z,3.99
2022-12-05T07:40:42.189Z,3.99
2022-12-05T07:41:42.031Z,3.99
2022-12-05T07:42:42.387Z,3.99
2022-12-05T07:43:42.454Z,3.99
2022-12-05T07:44:42.229Z,3.99
2022-12-05T07:45:42.441Z,3.98
2022-12-05T07:46:42.224Z,3.96
2022-12-05T07:47:43.376Z,3.96
2022-12-05T07:48:42.137Z,3.96
2022-12-05T07:49:42.255Z,3.92
2022-12-05T07:50:42.222Z,3.92
2022-12-05T07:51:42.254Z,3.92
2022-12-05T07:52:42.267Z,3.94
2022-12-05T07:53:42.000Z,3.94
2022-12-05T07:54:42.527Z,3.94
2022-12-05T07:55:42.148Z,3.92
2022-12-05T07:56:47.630Z,3.94
2022-12-05T07:57:43.272Z,3.94
2022-12-05T07:58:42.214Z,3.96
2022-12-05T07:59:42.123Z,3.96
2022-12-05T08:00:42.139Z,3.98
2022-12-05T08:01:41.909Z,3.96
2022-12-05T08:02:42.107Z,3.96
2022-12-05T08:03:42.056Z,3.98
2022-12-05T08:04:42.190Z,3.94
2022-12-05T08:05:41.972Z,3.96
2022-12-05T08:06:42.231Z,3.98
2022-12-05T08:07:41.852Z,3.96
2022-12-05T08:08:42.282Z,3.96
2022-12-05T08:09:41.942Z,3.96
2022-12-05T08:10:41.989Z,3.92
2022-12-05T08:11:41.784Z,3.91
2022-12-05T08:12:41.863Z,3.88
2022-12-05T08:13:41.950Z,3.87
2022-12-05T08:14:42.172Z,3.85
2022-12-05T08:15:42.199Z,3.84
2022-12-05T08:16:42.942Z,3.84
2022-12-05T08:17:41.932Z,3.85
2022-12-05T08:18:42.196Z,3.87
2022-12-05T08:19:41.883Z,3.84
2022-12-05T08:20:41.733Z,3.85
2022-12-05T08:21:42.022Z,3.84
2022-12-05T08:22:41.932Z,3.84
2022-12-05T08:23:41.739Z,3.81
2022-12-05T08:24:41.823Z,3.78
2022-12-05T08:25:41.799Z,3.81
2022-12-05T08:26:42.758Z,3.80
2022-12-05T08:27:41.742Z,3.78
2022-12-05T08:28:41.754Z,3.81
2022-12-05T08:29:41.857Z,3.80
2022-12-05T08:30:41.590Z,3.81
2022-12-05T08:31:42.023Z,3.78
2022-12-05T08:32:41.760Z,3.78
2022-12-05T08:33:41.534Z,3.78
2022-12-05T08:34:42.071Z,3.73
2022-12-05T08:35:41.620Z,3.72
2022-12-05T08:36:41.452Z,3.70
2022-12-05T08:37:41.805Z,3.70
2022-12-05T08:38:41.677Z,3.70
2022-12-05T08:39:42.056Z,3.69
2022-12-05T08:40:41.872Z,3.66
2022-12-05T08:41:41.685Z,3.69
2022-12-05T08:42:41.547Z,3.69
2022-12-05T08:43:41.582Z,3.67
2022-12-05T08:44:41.739Z,3.66
2022-12-05T08:45:41.591Z,3.64
2022-12-05T08:46:41.576Z,3.63
2022-12-05T08:47:42.387Z,3.62
2022-12-05T08:48:41.578Z,3.60
2022-12-05T08:49:41.553Z,3.59
2022-12-05T08:50:43.596Z,3.55
2022-12-05T08:51:42.375Z,3.54
2022-12-05T08:52:41.706Z,3.52
2022-12-05T08:53:44.600Z,3.54
2022-12-05T08:54:42.322Z,3.54
2022-12-05T08:55:41.816Z,3.56
2022-12-05T08:56:41.698Z,3.56
2022-12-05T08:57:41.840Z,3.59
2022-12-05T08:58:41.540Z,3.60
2022-12-05T08:59:41.435Z,3.59
2022-12-05T09:00:41.337Z,3.59
2022-12-05T09:01:41.926Z,3.60
2022-12-05T09:02:41.606Z,3.59
2022-12-05T09:03:47.394Z,3.55
2022-12-05T09:04:42.341Z,3.54
2022-12-05T09:05:41.087Z,3.52
2022-12-05T09:06:41.349Z,3.54
2022-12-05T09:07:41.490Z,3.54
2022-12-05T09:08:41.624Z,3.54
2022-12-05T09:09:42.245Z,3.51
2022-12-05T09:10:42.649Z,3.49
2022-12-05T09:11:41.257Z,3.49
2022-12-05T09:12:41.364Z,3.49
2022-12-05T09:13:41.580Z,3.49
2022-12-05T09:14:41.275Z,3.52
2022-12-05T09:15:41.111Z,3.52
2022-12-05T09:16:41.212Z,3.51
2022-12-05T09:17:41.222Z,3.54
2022-12-05T09:18:41.223Z,3.55
2022-12-05T09:19:41.272Z,3.56
2022-12-05T09:20:41.210Z,3.55
2022-12-05T09:21:41.235Z,3.49
2022-12-05T09:22:41.116Z,3.51
2022-12-05T09:23:41.309Z,3.52
2022-12-05T09:24:41.252Z,3.52
2022-12-05T09:25:41.250Z,3.49
2022-12-05T09:26:41.024Z,3.52
2022-12-05T09:27:41.190Z,3.52
2022-12-05T09:28:41.202Z,3.54
2022-12-05T09:29:41.021Z,3.52
2022-12-05T09:30:41.118Z,3.49
2022-12-05T09:31:41.536Z,3.46
2022-12-05T09:32:41.147Z,3.45
2022-12-05T09:33:40.729Z,3.45
2022-12-05T09:34:40.915Z,3.46
2022-12-05T09:35:41.936Z,3.49
2022-12-05T09:36:41.309Z,3.48
2022-12-05T09:37:40.971Z,3.46
2022-12-05T09:38:40.851Z,3.46
2022-12-05T09:39:41.201Z,3.46
2022-12-05T09:40:40.678Z,3.46
2022-12-05T09:41:40.964Z,3.45
2022-12-05T09:42:40.829Z,3.44
2022-12-05T09:43:40.914Z,3.44
2022-12-05T09:44:40.790Z,3.44
2022-12-05T09:45:41.780Z,3.45
2022-12-05T09:46:40.921Z,3.42
2022-12-05T09:47:40.675Z,3.41
2022-12-05T09:48:40.841Z,3.37
2022-12-05T09:49:42.126Z,3.37
2022-12-05T09:50:40.954Z,3.37
2022-12-05T09:51:40.868Z,3.41
2022-12-05T09:52:40.755Z,3.36
2022-12-05T09:53:41.089Z,3.36
2022-12-05T09:54:40.787Z,3.35
2022-12-05T09:55:40.939Z,3.32
2022-12-05T09:56:40.577Z,3.30
2022-12-05T09:57:40.823Z,3.33
2022-12-05T09:58:40.627Z,3.32
2022-12-05T09:59:40.819Z,3.32
2022-12-05T10:00:40.697Z,3.29
2022-12-05T10:01:40.752Z,3.26
2022-12-05T10:02:40.747Z,3.27
2022-12-05T10:03:40.709Z,3.25
2022-12-05T10:04:40.880Z,3.26
2022-12-05T10:05:40.668Z,3.23
2022-12-05T10:06:40.878Z,3.25
2022-12-05T10:07:40.965Z,3.25
2022-12-05T10:08:40.540Z,3.23
2022-12-05T10:09:40.639Z,3.26
2022-12-05T10:10:40.541Z,3.27
2022-12-05T10:11:40.570Z,3.26
2022-12-05T10:12:40.746Z,3.27
2022-12-05T10:13:41.294Z,3.27
2022-12-05T10:14:40.633Z,3.27
2022-12-05T10:15:43.899Z,3.29
2022-12-05T10:16:40.816Z,3.29
2022-12-05T10:17:40.497Z,3.26
2022-12-05T10:18:41.444Z,3.25
2022-12-05T10:19:41.170Z,3.26
2022-12-05T10:20:40.530Z,3.26
2022-12-05T10:21:40.560Z,3.25
2022-12-05T10:22:40.434Z,3.27
2022-12-05T10:23:57.112Z,3.30
2022-12-05T10:24:41.525Z,3.27
2022-12-05T10:25:41.430Z,3.29
2022-12-05T10:26:40.633Z,3.32
2022-12-05T10:27:40.747Z,3.32
2022-12-05T10:28:40.473Z,3.35
2022-12-05T10:29:40.352Z,3.32
2022-12-05T10:30:40.713Z,3.30
2022-12-05T10:31:40.270Z,3.30
2022-12-05T10:32:40.367Z,3.30
2022-12-05T10:33:41.114Z,3.33
2022-12-05T10:34:40.427Z,3.35
2022-12-05T10:35:40.314Z,3.35
2022-12-05T10:36:40.833Z,3.33
2022-12-05T10:37:40.406Z,3.30
2022-12-05T10:38:40.222Z,3.32
2022-12-05T10:39:40.406Z,3.33
2022-12-05T10:40:40.398Z,3.35
2022-12-05T10:41:40.333Z,3.35
2022-12-05T10:42:40.227Z,3.36
2022-12-05T10:43:40.568Z,3.41
2022-12-05T10:44:40.485Z,3.37
2022-12-05T10:45:40.260Z,3.41
2022-12-05T10:46:40.502Z,3.42
2022-12-05T10:47:40.335Z,3.44
2022-12-05T10:48:40.156Z,3.44
2022-12-05T10:49:40.205Z,3.45
2022-12-05T10:50:40.264Z,3.46
2022-12-05T10:51:40.032Z,3.49
2022-12-05T10:52:40.936Z,3.49
2022-12-05T10:53:40.316Z,3.49
2022-12-05T10:54:40.184Z,3.51
2022-12-05T10:55:40.009Z,3.52
2022-12-05T10:56:40.945Z,3.51
2022-12-05T10:57:39.985Z,3.52
2022-12-05T10:58:40.161Z,3.52
2022-12-05T10:59:40.216Z,3.52
2022-12-05T11:00:40.113Z,3.48
2022-12-05T11:01:40.146Z,3.48
2022-12-05T11:02:40.220Z,3.46
2022-12-05T11:03:40.166Z,3.48
2022-12-05T11:04:40.221Z,3.49
2022-12-05T11:05:40.021Z,3.49
2022-12-05T11:06:40.356Z,3.49
2022-12-05T11:07:40.104Z,3.49
2022-12-05T11:09:03.810Z,3.49
2022-12-05T11:09:40.986Z,3.51
2022-12-05T11:10:39.932Z,3.51
2022-12-05T11:11:40.265Z,3.52
2022-12-05T11:12:40.080Z,3.56
2022-12-05T11:13:39.913Z,3.59
2022-12-05T11:14:39.904Z,3.60
2022-12-05T11:15:40.280Z,3.60
2022-12-05T11:16:39.856Z,3.60
2022-12-05T11:17:40.310Z,3.62
2022-12-05T11:18:40.159Z,3.62
2022-12-05T11:19:40.034Z,3.63
2022-12-05T11:20:39.840Z,3.60
2022-12-05T11:21:39.969Z,3.62
2022-12-05T11:22:42.196Z,3.63
2022-12-05T11:23:40.084Z,3.63
2022-12-05T11:24:39.811Z,3.62
2022-12-05T11:25:39.794Z,3.59
2022-12-05T11:26:40.602Z,3.60
2022-12-05T11:27:39.811Z,3.60
2022-12-05T11:28:40.244Z,3.60
2022-12-05T11:29:40.132Z,3.63
2022-12-05T11:30:39.854Z,3.64
2022-12-05T11:31:40.133Z,3.64
2022-12-05T11:32:40.017Z,3.63
2022-12-05T11:33:39.795Z,3.66
2022-12-05T11:34:39.223Z,3.64
2022-12-05T11:35:39.375Z,3.67
2022-12-05T11:36:39.080Z,3.67
2022-12-05T11:37:39.023Z,3.66
2022-12-05T11:38:39.044Z,3.69
2022-12-05T11:39:39.115Z,3.69
2022-12-05T11:40:39.065Z,3.67
2022-12-05T11:41:39.088Z,3.69
2022-12-05T11:42:39.063Z,3.66
2022-12-05T11:43:39.066Z,3.66
2022-12-05T11:44:39.296Z,3.63
2022-12-05T11:45:39.094Z,3.60
2022-12-05T11:46:39.023Z,3.60
2022-12-05T11:47:38.994Z,3.62
2022-12-05T11:48:39.033Z,3.62
2022-12-05T11:49:39.076Z,3.64
2022-12-05T11:50:39.026Z,3.66
2022-12-05T11:51:39.078Z,3.66
2022-12-05T11:52:41.002Z,3.66
2022-12-05T11:53:38.948Z,3.67
2022-12-05T11:55:40.509Z,3.67
2022-12-05T11:56:39.107Z,3.63
2022-12-05T11:57:39.018Z,3.63
2022-12-05T11:58:38.998Z,3.64
2022-12-05T11:59:39.015Z,3.64
2022-12-05T12:00:39.241Z,3.63
2022-12-05T12:01:39.655Z,3.63
2022-12-05T12:02:39.897Z,3.63
2022-12-05T12:03:39.431Z,3.60
2022-12-05T12:04:38.949Z,3.62
2022-12-05T12:05:38.869Z,3.60
2022-12-05T12:06:38.758Z,3.62
2022-12-05T12:07:38.815Z,3.62
2022-12-05T12:08:38.917Z,3.63
2022-12-05T12:09:38.761Z,3.64
2022-12-05T12:10:38.688Z,3.64
2022-12-05T12:11:38.666Z,3.66
2022-12-05T12:12:38.635Z,3.66
2022-12-05T12:13:38.640Z,3.69
2022-12-05T12:14:38.729Z,3.67
2022-12-05T12:15:38.715Z,3.67
2022-12-05T12:16:38.732Z,3.64
2022-12-05T12:17:38.654Z,3.64
2022-12-05T12:18:38.604Z,3.64
2022-12-05T12:19:38.583Z,3.64
2022-12-05T12:20:38.630Z,3.63
2022-12-05T12:21:38.923Z,3.64
2022-12-05T12:22:38.511Z,3.64
2022-12-05T12:23:38.509Z,3.63
2022-12-05T12:24:38.502Z,3.63
2022-12-05T12:25:38.492Z,3.66
2022-12-05T12:26:38.551Z,3.66
2022-12-05T12:27:38.471Z,3.66
2022-12-05T12:28:38.472Z,3.69
2022-12-05T12:29:38.442Z,3.70
2022-12-05T12:30:38.411Z,3.69
2022-12-05T12:31:38.549Z,3.66
2022-12-05T12:32:38.392Z,3.66
2022-12-05T12:33:38.394Z,3.64
2022-12-05T12:34:38.380Z,3.64
2022-12-05T12:35:38.373Z,3.62
2022-12-05T12:36:38.387Z,3.62
2022-12-05T12:37:38.336Z,3.60
2022-12-05T12:38:38.367Z,3.60
2022-12-05T12:39:38.323Z,3.62
2022-12-05T12:40:38.323Z,3.59
2022-12-05T12:41:38.317Z,3.59
2022-12-05T12:42:38.336Z,3.55
2022-12-05T12:43:53.649Z,3.60
2022-12-05T12:44:39.276Z,3.59
2022-12-05T12:45:38.308Z,3.62
2022-12-05T12:46:38.325Z,3.62
2022-12-05T12:47:38.300Z,3.64
2022-12-05T12:48:38.223Z,3.64
2022-12-05T12:49:38.216Z,3.63
2022-12-05T12:50:43.393Z,3.62
2022-12-05T12:51:39.185Z,3.64
2022-12-05T12:52:38.246Z,3.67
2022-12-05T12:53:38.188Z,3.67
2022-12-05T12:55:02.734Z,3.67
2022-12-05T12:55:39.145Z,3.67
2022-12-05T12:56:38.160Z,3.69
2022-12-05T12:57:38.123Z,3.66
2022-12-05T12:58:38.154Z,3.66
2022-12-05T12:59:38.119Z,3.66
2022-12-05T13:00:38.099Z,3.67
2022-12-05T13:01:38.156Z,3.66
2022-12-05T13:02:38.143Z,3.69
2022-12-05T13:03:38.069Z,3.67
2022-12-05T13:04:38.146Z,3.67
2022-12-05T13:05:38.059Z,3.70
2022-12-05T13:06:38.029Z,3.70
2022-12-05T13:07:38.063Z,3.72
2022-12-05T13:08:38.019Z,3.72
2022-12-05T13:09:37.997Z,3.72
2022-12-05T13:10:38.023Z,3.73
2022-12-05T13:11:37.993Z,3.73
2022-12-05T13:12:37.971Z,3.74
2022-12-05T13:13:37.958Z,3.73
2022-12-05T13:14:37.954Z,3.70
2022-12-05T13:15:38.080Z,3.69
2022-12-05T13:16:42.486Z,3.69
2022-12-05T13:17:38.919Z,3.69
2022-12-05T13:18:37.912Z,3.69
2022-12-05T13:19:37.889Z,3.67